Republic, Washington
Current Conditions -  °F | °C
As of 9:53 AM on Friday 21 Nov 2014 (Local Time) from KOMK Reporting Station
Haze Haze  
Wind Chill: 33°   Ceiling: 1800
Heat Index: 33°   Visibility: 6mi
Dew Point: 27°   Wind: 3mph
Humidity: 78%   Direction: 140°SE
Pressure: 29.89"   Gusts: NA
Location:  48.65°N, 118.74°W
Report Text: KOMK 211753Z AUTO 14003KT 6SM HZ OVC018 01/M03 A2989 RMK AO2 SLP135 T00061028 10006 21017 58009
Loading
Personal Weather Stations






























Interactive Weather Map New forecast layout! Learn more

10-Day Weather Forecast

Advertisements
Track Severe Weather on mobile